createdAt,value
2023-04-13T00:02:28.220Z,0.65
2023-04-13T00:04:55.198Z,0.52
2023-04-13T00:07:22.930Z,0.68
2023-04-13T00:09:50.926Z,0.70
2023-04-13T00:12:23.902Z,0.70
2023-04-13T00:14:50.885Z,0.68
2023-04-13T00:17:17.913Z,0.80
2023-04-13T00:19:50.395Z,0.70
2023-04-13T00:22:18.665Z,0.95
2023-04-13T00:24:45.986Z,0.80
2023-04-13T00:27:16.389Z,0.82
2023-04-13T00:29:43.208Z,0.77
2023-04-13T00:32:10.122Z,0.70
2023-04-13T00:34:36.915Z,0.73
2023-04-13T00:37:07.327Z,1.05
2023-04-13T00:39:36.989Z,1.00
2023-04-13T00:42:04.389Z,0.70
2023-04-13T00:44:36.063Z,0.82
2023-04-13T00:47:05.317Z,0.68
2023-04-13T00:49:35.967Z,0.65
2023-04-13T00:52:03.395Z,1.20
2023-04-13T00:54:35.965Z,0.70
2023-04-13T00:57:02.882Z,0.75
2023-04-13T00:59:32.024Z,0.70
2023-04-13T01:02:02.351Z,0.77
2023-04-13T01:04:32.507Z,0.70
2023-04-13T01:07:12.158Z,0.68
2023-04-13T01:09:45.502Z,0.73
2023-04-13T01:12:19.192Z,0.90
2023-04-13T01:14:58.560Z,0.60
2023-04-13T01:17:30.633Z,0.73
2023-04-13T01:20:12.195Z,0.80
2023-04-13T01:22:48.230Z,0.80
2023-04-13T01:25:42.635Z,0.70
2023-04-13T01:28:13.659Z,1.08
2023-04-13T01:30:40.850Z,1.00
2023-04-13T01:33:09.782Z,0.93
2023-04-13T01:35:39.360Z,0.88
2023-04-13T01:38:09.772Z,0.90
2023-04-13T01:40:40.819Z,0.73
2023-04-13T01:43:10.508Z,1.02
2023-04-13T01:46:14.322Z,0.80
2023-04-13T01:48:41.285Z,0.90
2023-04-13T01:51:25.192Z,0.70
2023-04-13T01:54:12.584Z,0.85
2023-04-13T01:56:44.198Z,0.90
2023-04-13T01:59:11.477Z,0.90
2023-04-13T02:01:41.632Z,0.90
2023-04-13T02:04:08.804Z,0.90
2023-04-13T02:06:39.626Z,1.02
2023-04-13T02:09:08.795Z,1.30
2023-04-13T02:11:37.882Z,0.90
2023-04-13T02:14:05.049Z,0.98
2023-04-13T02:16:34.919Z,0.88
2023-04-13T02:19:04.230Z,1.02
2023-04-13T02:21:31.053Z,1.00
2023-04-13T02:23:58.246Z,0.85
2023-04-13T02:26:29.336Z,1.02
2023-04-13T02:28:56.660Z,1.02
2023-04-13T02:31:25.994Z,1.20
2023-04-13T02:33:58.963Z,1.20
2023-04-13T02:36:29.179Z,1.38
2023-04-13T02:38:58.863Z,1.30
2023-04-13T02:45:18.263Z,1.35
2023-04-13T02:47:45.398Z,1.38
2023-04-13T02:50:16.015Z,1.30
2023-04-13T02:52:44.166Z,1.20
2023-04-13T02:55:16.063Z,1.20
2023-04-13T02:57:43.724Z,1.05
2023-04-13T03:00:13.424Z,1.00
2023-04-13T03:02:45.086Z,0.95
2023-04-13T03:05:13.039Z,0.60
2023-04-13T03:07:45.561Z,0.80
2023-04-13T03:10:16.706Z,0.75
2023-04-13T03:12:46.867Z,0.80
2023-04-13T03:15:17.499Z,1.20
2023-04-13T03:17:44.886Z,1.08
2023-04-13T03:20:13.462Z,0.90
2023-04-13T03:22:40.625Z,0.98
2023-04-13T03:25:12.804Z,1.08
2023-04-13T03:27:42.027Z,1.20
2023-04-13T03:30:09.354Z,1.15
2023-04-13T03:32:36.604Z,1.20
2023-04-13T03:35:09.080Z,1.83
2023-04-13T03:37:43.120Z,1.30
2023-04-13T03:40:10.655Z,1.30
2023-04-13T03:42:40.985Z,1.40
2023-04-13T03:45:08.463Z,1.80
2023-04-13T03:47:35.677Z,2.00
2023-04-13T03:50:04.042Z,2.13
2023-04-13T03:52:33.290Z,2.33
2023-04-13T03:55:00.599Z,2.65
2023-04-13T03:57:27.549Z,2.72
2023-04-13T03:59:57.292Z,3.03
2023-04-13T04:02:26.480Z,3.35
2023-04-13T04:04:56.377Z,2.78
2023-04-13T04:07:23.690Z,2.97
2023-04-13T04:09:53.001Z,3.58
2023-04-13T04:12:24.201Z,4.13
2023-04-13T04:14:53.879Z,4.07
2023-04-13T04:17:23.057Z,4.20
2023-04-13T04:19:50.158Z,4.93
2023-04-13T04:22:21.595Z,4.50
2023-04-13T04:24:50.157Z,4.30
2023-04-13T04:27:22.479Z,4.57
2023-04-13T04:29:51.997Z,4.63
2023-04-13T04:32:20.113Z,4.45
2023-04-13T04:34:47.333Z,4.28
2023-04-13T04:37:20.778Z,4.95
2023-04-13T04:39:50.717Z,4.35
2023-04-13T04:42:18.971Z,4.50
2023-04-13T04:44:50.258Z,4.45
2023-04-13T04:47:17.565Z,4.03
2023-04-13T04:49:44.609Z,4.05
2023-04-13T04:52:14.819Z,4.10
2023-04-13T04:54:41.696Z,3.92
2023-04-13T04:57:12.843Z,3.55
2023-04-13T04:59:41.856Z,3.60
2023-04-13T05:02:08.773Z,3.53
2023-04-13T05:04:44.610Z,3.90
2023-04-13T05:07:18.191Z,3.72
2023-04-13T05:09:45.578Z,3.40
2023-04-13T05:12:16.917Z,3.53
2023-04-13T05:14:49.930Z,3.78
2023-04-13T05:17:19.133Z,4.25
2023-04-13T05:19:47.474Z,3.92
2023-04-13T05:22:15.721Z,3.55
2023-04-13T05:24:48.398Z,3.88
2023-04-13T05:27:20.023Z,4.55
2023-04-13T05:29:47.847Z,4.25
2023-04-13T05:32:21.415Z,4.60
2023-04-13T05:34:48.297Z,4.60
2023-04-13T05:37:20.261Z,5.25
2023-04-13T05:39:50.433Z,4.55
2023-04-13T05:42:29.476Z,4.78
2023-04-13T05:44:59.548Z,5.00
2023-04-13T05:49:26.572Z,4.65
2023-04-13T05:51:32.065Z,3.72
2023-04-13T05:53:59.350Z,4.45
2023-04-13T05:56:29.948Z,4.20
2023-04-13T05:59:02.966Z,3.60
2023-04-13T06:01:33.883Z,4.45
2023-04-13T06:04:02.540Z,3.40
2023-04-13T06:06:30.504Z,4.82
2023-04-13T06:08:57.667Z,3.90
2023-04-13T06:11:26.109Z,2.83
2023-04-13T06:13:53.137Z,3.05
2023-04-13T06:16:26.996Z,2.80
2023-04-13T06:18:53.992Z,2.80
2023-04-13T06:21:20.958Z,3.03
2023-04-13T06:23:53.827Z,2.80
2023-04-13T06:26:21.274Z,2.60
2023-04-13T06:29:08.851Z,2.75
2023-04-13T06:31:35.990Z,3.28
2023-04-13T06:34:05.746Z,3.08
2023-04-13T06:36:33.115Z,2.58
2023-04-13T06:39:04.068Z,2.70
2023-04-13T06:41:49.150Z,3.00
2023-04-13T06:44:24.658Z,2.50
2023-04-13T06:47:15.940Z,2.67
2023-04-13T06:51:14.066Z,3.10
2023-04-13T06:53:52.004Z,3.45
2023-04-13T06:59:10.648Z,3.78
2023-04-13T07:04:38.381Z,3.75
2023-04-13T07:10:07.953Z,3.92
2023-04-13T07:16:06.936Z,2.53
2023-04-13T07:18:36.129Z,2.95
2023-04-13T07:21:02.874Z,3.10
2023-04-13T07:23:34.912Z,3.42
2023-04-13T07:26:30.235Z,2.97
2023-04-13T07:29:01.388Z,2.45
2023-04-13T07:31:31.933Z,2.60
2023-04-13T07:34:10.013Z,2.85
2023-04-13T07:36:37.593Z,2.53
2023-04-13T07:39:09.336Z,2.35
2023-04-13T07:41:38.583Z,3.00
2023-04-13T07:44:07.946Z,3.17
2023-04-13T07:46:34.945Z,3.20
2023-04-13T07:49:02.198Z,2.45
2023-04-13T07:51:30.198Z,2.70
2023-04-13T07:53:59.628Z,2.22
2023-04-13T07:56:27.250Z,2.33
2023-04-13T07:58:54.536Z,1.83
2023-04-13T08:01:35.051Z,2.15
2023-04-13T08:04:01.921Z,2.10
2023-04-13T08:06:31.995Z,1.90
2023-04-13T08:09:00.070Z,1.98
2023-04-13T08:11:27.315Z,2.13
2023-04-13T08:13:54.271Z,1.50
2023-04-13T08:16:21.556Z,1.42
2023-04-13T08:18:48.636Z,1.90
2023-04-13T08:21:17.698Z,1.67
2023-04-13T08:23:47.605Z,1.83
2023-04-13T08:26:21.476Z,2.22
2023-04-13T08:28:53.265Z,2.03
2023-04-13T08:31:23.481Z,1.95
2023-04-13T08:33:52.915Z,2.20
2023-04-13T08:36:22.522Z,1.83
2023-04-13T08:38:49.699Z,1.85
2023-04-13T08:41:17.737Z,1.55
2023-04-13T08:43:47.067Z,3.03
2023-04-13T08:46:21.394Z,1.42
2023-04-13T08:48:54.033Z,2.42
2023-04-13T08:51:26.642Z,2.28
2023-04-13T08:53:53.769Z,2.47
2023-04-13T08:56:28.308Z,2.00
2023-04-13T08:59:07.610Z,1.58
2023-04-13T09:01:39.827Z,2.05
2023-04-13T09:04:12.337Z,2.60
2023-04-13T09:06:43.555Z,2.15
2023-04-13T09:09:14.709Z,1.90
2023-04-13T09:11:48.427Z,1.92
2023-04-13T09:14:20.243Z,1.77
2023-04-13T09:16:47.719Z,1.50
2023-04-13T09:19:14.454Z,2.28
2023-04-13T09:21:45.864Z,1.92
2023-04-13T09:24:12.911Z,1.73
2023-04-13T09:26:44.737Z,1.58
2023-04-13T09:29:16.464Z,1.98
2023-04-13T09:31:45.167Z,1.83
2023-04-13T09:34:12.692Z,1.73
2023-04-13T09:36:49.479Z,1.92
2023-04-13T09:39:29.296Z,1.90
2023-04-13T09:42:09.709Z,1.90
2023-04-13T09:44:38.755Z,1.85
2023-04-13T09:47:08.729Z,2.03
2023-04-13T09:49:38.882Z,1.70
2023-04-13T09:52:26.067Z,1.50
2023-04-13T09:55:02.070Z,1.88
2023-04-13T09:57:32.662Z,2.65
2023-04-13T10:00:02.485Z,1.58
2023-04-13T10:02:30.539Z,1.73
2023-04-13T10:04:58.824Z,1.58
2023-04-13T10:07:31.839Z,1.92
2023-04-13T10:09:58.881Z,1.13
2023-04-13T10:12:27.721Z,1.85
2023-04-13T10:15:06.361Z,1.60
2023-04-13T10:17:45.219Z,2.00
2023-04-13T10:20:13.939Z,1.17
2023-04-13T10:22:45.917Z,1.98
2023-04-13T10:25:29.100Z,1.88
2023-04-13T10:28:00.673Z,1.17
2023-04-13T10:30:27.843Z,2.10
2023-04-13T10:33:10.044Z,1.60
2023-04-13T10:35:41.454Z,1.85
2023-04-13T10:38:12.564Z,2.03
2023-04-13T10:40:44.589Z,1.17
2023-04-13T10:43:13.434Z,1.60
2023-04-13T10:45:40.233Z,1.55
2023-04-13T10:48:07.585Z,1.67
2023-04-13T10:50:34.573Z,1.52
2023-04-13T10:53:05.042Z,1.40
2023-04-13T10:55:33.221Z,1.20
2023-04-13T10:58:03.328Z,1.73
2023-04-13T11:00:45.529Z,2.20
2023-04-13T11:03:17.242Z,1.45
2023-04-13T11:05:49.546Z,1.60
2023-04-13T11:08:22.048Z,1.52
2023-04-13T11:10:59.050Z,1.08
2023-04-13T11:13:26.929Z,1.20
2023-04-13T11:16:03.022Z,1.55
2023-04-13T11:18:32.602Z,1.42
2023-04-13T11:20:59.386Z,1.35
2023-04-13T11:23:36.468Z,1.42
2023-04-13T11:26:11.692Z,1.60
2023-04-13T11:28:44.097Z,1.75
2023-04-13T11:31:12.206Z,1.42
2023-04-13T11:33:40.546Z,1.27
2023-04-13T11:36:10.849Z,1.15
2023-04-13T11:38:39.693Z,1.45
2023-04-13T11:41:14.932Z,1.15
2023-04-13T11:43:46.140Z,1.17
2023-04-13T11:46:15.444Z,1.75
2023-04-13T11:48:43.236Z,1.83
2023-04-13T11:51:15.066Z,1.27
2023-04-13T11:53:41.895Z,1.45
2023-04-13T11:56:09.132Z,1.45
2023-04-13T11:58:39.649Z,1.42
2023-04-13T12:01:13.948Z,1.58
2023-04-13T12:03:56.979Z,1.40
2023-04-13T12:06:38.692Z,1.10
2023-04-13T12:09:13.513Z,1.02
2023-04-13T12:12:15.978Z,0.88
2023-04-13T12:19:45.973Z,1.45
2023-04-13T12:22:14.824Z,1.35
2023-04-13T12:24:45.465Z,1.63
2023-04-13T12:27:18.885Z,1.10
2023-04-13T12:29:47.539Z,1.33
2023-04-13T12:32:16.223Z,0.95
2023-04-13T12:34:50.663Z,1.42
2023-04-13T12:37:21.973Z,1.40
2023-04-13T12:39:48.925Z,1.23
2023-04-13T12:42:18.274Z,1.85
2023-04-13T12:44:45.536Z,1.50
2023-04-13T12:47:13.358Z,1.30
2023-04-13T12:49:40.108Z,1.83
2023-04-13T12:52:07.205Z,1.08
2023-04-13T12:54:33.910Z,1.20
2023-04-13T12:57:01.744Z,0.93
2023-04-13T12:59:31.031Z,1.00
2023-04-13T13:01:59.942Z,1.27
2023-04-13T13:04:30.279Z,0.70
2023-04-13T13:06:56.868Z,0.90
2023-04-13T13:09:25.881Z,1.20
2023-04-13T13:11:52.734Z,0.65
2023-04-13T13:14:22.359Z,0.90
2023-04-13T13:16:50.251Z,1.40
2023-04-13T13:19:17.179Z,1.15
2023-04-13T13:21:43.863Z,0.93
2023-04-13T13:24:10.516Z,1.25
2023-04-13T13:26:58.602Z,1.02
2023-04-13T13:29:28.049Z,0.77
2023-04-13T13:31:54.825Z,1.23
2023-04-13T13:34:21.446Z,0.90
2023-04-13T13:36:48.008Z,1.20
2023-04-13T13:39:14.661Z,1.10
2023-04-13T13:41:41.360Z,0.90
2023-04-13T13:44:08.148Z,1.27
2023-04-13T13:46:36.640Z,0.75
2023-04-13T13:49:03.565Z,1.05
2023-04-13T13:51:32.628Z,1.13
2023-04-13T13:53:59.579Z,0.88
2023-04-13T13:56:30.974Z,1.20
2023-04-13T13:59:00.104Z,1.20
2023-04-13T14:01:27.477Z,1.13
2023-04-13T14:03:57.159Z,1.00
2023-04-13T14:06:26.513Z,1.38
2023-04-13T14:08:56.292Z,1.23
2023-04-13T14:11:23.109Z,1.23
2023-04-13T14:13:49.819Z,1.02
2023-04-13T14:16:17.279Z,1.10
2023-04-13T14:18:43.900Z,1.13
2023-04-13T14:21:15.816Z,0.90
2023-04-13T14:23:47.397Z,1.60
2023-04-13T14:26:14.010Z,0.98
2023-04-13T14:28:40.846Z,1.27
2023-04-13T14:31:07.565Z,1.00
2023-04-13T14:33:34.287Z,1.40
2023-04-13T14:36:01.123Z,1.70
2023-04-13T14:38:27.779Z,1.05
2023-04-13T14:40:56.769Z,1.25
2023-04-13T14:43:23.473Z,1.23
2023-04-13T14:45:55.143Z,1.20
2023-04-13T14:48:23.146Z,1.00
2023-04-13T14:50:52.920Z,1.10
2023-04-13T14:53:19.598Z,1.13
2023-04-13T14:55:46.614Z,1.00
2023-04-13T14:58:13.433Z,0.98
2023-04-13T15:00:40.277Z,1.08
2023-04-13T15:03:15.048Z,0.95
2023-04-13T15:05:45.522Z,1.58
2023-04-13T15:08:16.723Z,0.80
2023-04-13T15:10:43.501Z,1.45
2023-04-13T15:13:10.249Z,1.25
2023-04-13T15:15:40.559Z,0.90
2023-04-13T15:18:08.283Z,1.25
2023-04-13T15:20:39.883Z,1.05
2023-04-13T15:23:11.070Z,0.90
2023-04-13T15:25:38.418Z,1.10
2023-04-13T15:28:05.043Z,0.80
2023-04-13T15:30:43.742Z,0.98
2023-04-13T15:33:14.637Z,1.13
2023-04-13T15:35:45.727Z,1.58
2023-04-13T15:38:12.355Z,1.20
2023-04-13T15:40:39.169Z,1.00
2023-04-13T15:43:08.548Z,1.17
2023-04-13T15:45:35.500Z,1.20
2023-04-13T15:48:05.274Z,0.80
2023-04-13T15:50:39.236Z,1.05
2023-04-13T15:53:10.699Z,1.35
2023-04-13T15:55:40.124Z,0.85
2023-04-13T15:58:12.773Z,0.85
2023-04-13T16:00:39.650Z,0.95
2023-04-13T16:03:07.818Z,1.08
2023-04-13T16:05:59.783Z,1.10
2023-04-13T16:08:27.112Z,0.90
2023-04-13T16:10:54.577Z,0.98
2023-04-13T16:13:28.313Z,1.38
2023-04-13T16:16:07.895Z,0.98
2023-04-13T16:18:36.398Z,0.82
2023-04-13T16:21:04.400Z,1.00
2023-04-13T16:23:34.915Z,0.88
2023-04-13T16:26:09.712Z,0.90
2023-04-13T16:28:41.192Z,0.95
2023-04-13T16:31:11.270Z,0.88
2023-04-13T16:33:39.846Z,1.27
2023-04-13T16:36:13.887Z,1.67
2023-04-13T16:38:44.107Z,1.30
2023-04-13T16:41:13.139Z,1.42
2023-04-13T16:43:40.025Z,1.35
2023-04-13T16:46:06.657Z,1.25
2023-04-13T16:48:36.517Z,1.23
2023-04-13T16:51:03.628Z,1.80
2023-04-13T16:53:31.812Z,1.00
2023-04-13T16:55:59.633Z,1.00
2023-04-13T16:58:26.831Z,1.15
2023-04-13T17:00:55.187Z,1.20
2023-04-13T17:03:25.739Z,1.00
2023-04-13T17:05:58.545Z,1.02
2023-04-13T17:08:30.422Z,1.10
2023-04-13T17:11:19.494Z,1.02
2023-04-13T17:13:47.356Z,1.00
2023-04-13T17:16:20.820Z,1.05
2023-04-13T17:18:47.467Z,1.52
2023-04-13T17:21:18.843Z,1.08
2023-04-13T17:23:48.034Z,1.00
2023-04-13T17:26:20.186Z,1.23
2023-04-13T17:28:49.237Z,1.95
2023-04-13T17:31:16.792Z,1.17
2023-04-13T17:33:45.276Z,1.38
2023-04-13T17:36:12.301Z,1.30
2023-04-13T17:38:39.140Z,1.58
2023-04-13T17:41:07.183Z,1.70
2023-04-13T17:43:37.697Z,1.52
2023-04-13T17:46:05.916Z,1.13
2023-04-13T17:48:33.707Z,1.48
2023-04-13T17:51:03.650Z,1.45
2023-04-13T17:53:33.890Z,1.73
2023-04-13T17:56:00.575Z,1.60
2023-04-13T17:58:27.265Z,1.63
2023-04-13T18:00:55.237Z,1.50
2023-04-13T18:03:24.176Z,1.38
2023-04-13T18:05:51.856Z,1.38
2023-04-13T18:08:19.296Z,1.30
2023-04-13T18:10:49.502Z,1.38
2023-04-13T18:13:16.995Z,1.38
2023-04-13T18:15:48.072Z,1.00
2023-04-13T18:18:15.294Z,1.50
2023-04-13T18:20:42.125Z,1.27
2023-04-13T18:23:09.192Z,1.83
2023-04-13T18:25:35.885Z,1.67
2023-04-13T18:28:04.689Z,1.45
2023-04-13T18:30:33.484Z,1.52
2023-04-13T18:33:00.183Z,1.50
2023-04-13T18:35:27.644Z,1.30
2023-04-13T18:37:54.346Z,1.90
2023-04-13T18:40:21.216Z,1.73
2023-04-13T18:42:50.789Z,1.70
2023-04-13T18:45:18.205Z,1.58
2023-04-13T18:47:47.095Z,1.88
2023-04-13T18:50:16.391Z,1.55
2023-04-13T18:52:45.504Z,2.55
2023-04-13T18:55:12.230Z,2.28
2023-04-13T18:57:44.143Z,2.17
2023-04-13T19:00:11.622Z,2.10
2023-04-13T19:02:39.913Z,1.30
2023-04-13T19:05:06.891Z,1.60
2023-04-13T19:07:39.181Z,2.17
2023-04-13T19:10:06.685Z,1.88
2023-04-13T19:12:33.531Z,1.52
2023-04-13T19:15:00.289Z,1.63
2023-04-13T19:17:28.572Z,2.28
2023-04-13T19:19:56.037Z,1.70
2023-04-13T19:22:22.960Z,2.03
2023-04-13T19:24:49.820Z,1.75
2023-04-13T19:27:16.702Z,1.90
2023-04-13T19:29:43.468Z,1.63
2023-04-13T19:32:12.618Z,2.13
2023-04-13T19:34:39.357Z,1.67
2023-04-13T19:37:07.109Z,1.67
2023-04-13T19:39:34.049Z,1.63
2023-04-13T19:42:03.058Z,1.80
2023-04-13T19:44:29.737Z,1.80
2023-04-13T19:46:56.321Z,1.77
2023-04-13T19:49:23.020Z,2.00
2023-04-13T19:51:49.622Z,2.08
2023-04-13T19:54:16.518Z,2.00
2023-04-13T19:56:45.762Z,2.35
2023-04-13T19:59:14.604Z,2.22
2023-04-13T20:01:41.250Z,2.40
2023-04-13T20:04:09.076Z,2.20
2023-04-13T20:06:38.160Z,2.22
2023-04-13T20:09:12.785Z,2.67
2023-04-13T20:11:41.801Z,3.05
2023-04-13T20:14:13.849Z,2.72
2023-04-13T20:16:40.768Z,2.85
2023-04-13T20:19:09.994Z,2.60
2023-04-13T20:21:36.910Z,3.28
2023-04-13T20:24:08.621Z,2.92
2023-04-13T20:26:35.247Z,3.03
2023-04-13T20:29:04.557Z,3.85
2023-04-13T20:31:32.912Z,7.40
2023-04-13T20:34:00.062Z,7.75
2023-04-13T20:36:29.264Z,7.45
2023-04-13T20:38:59.749Z,5.72
2023-04-13T20:41:33.906Z,5.65
2023-04-13T20:44:01.112Z,5.53
2023-04-13T20:46:37.084Z,5.35
2023-04-13T20:49:05.506Z,6.93
2023-04-13T20:51:33.493Z,6.43
2023-04-13T20:54:03.234Z,6.63
2023-04-13T20:56:30.355Z,6.63
2023-04-13T20:59:01.142Z,6.70
2023-04-13T21:01:32.818Z,6.60
2023-04-13T21:04:00.004Z,5.95
2023-04-13T21:06:30.288Z,4.65
2023-04-13T21:08:59.021Z,3.90
2023-04-13T21:11:26.271Z,3.60
2023-04-13T21:13:55.743Z,3.95
2023-04-13T21:16:25.442Z,3.85
2023-04-13T21:18:57.202Z,3.85
2023-04-13T21:21:25.185Z,3.90
2023-04-13T21:23:53.208Z,4.28
2023-04-13T21:26:22.507Z,3.40
2023-04-13T21:28:49.442Z,3.90
2023-04-13T21:31:16.821Z,3.85
2023-04-13T21:33:44.062Z,3.67
2023-04-13T21:38:41.974Z,3.60
2023-04-13T21:41:19.882Z,3.40
2023-04-13T21:43:50.085Z,3.20
2023-04-13T21:46:18.893Z,4.38
2023-04-13T21:48:46.026Z,4.32
2023-04-13T21:51:13.077Z,3.83
2023-04-13T21:53:40.314Z,5.13
2023-04-13T21:56:07.788Z,4.22
2023-04-13T21:58:42.245Z,4.55
2023-04-13T22:01:13.016Z,4.60
2023-04-13T22:03:48.223Z,5.03
2023-04-13T22:06:15.144Z,4.72
2023-04-13T22:08:44.227Z,5.00
2023-04-13T22:11:13.527Z,4.45
2023-04-13T22:13:42.462Z,5.15
2023-04-13T22:16:10.115Z,4.75
2023-04-13T22:18:37.142Z,4.85
2023-04-13T22:21:04.020Z,5.00
2023-04-13T22:23:33.576Z,5.65
2023-04-13T22:26:03.201Z,4.50
2023-04-13T22:28:33.855Z,4.55
2023-04-13T22:31:12.098Z,5.28
2023-04-13T22:33:40.923Z,5.05
2023-04-13T22:36:20.148Z,5.10
2023-04-13T22:38:59.358Z,5.45
2023-04-13T22:41:26.440Z,5.07
2023-04-13T22:43:53.305Z,5.05
2023-04-13T22:46:24.174Z,5.90
2023-04-13T22:48:53.408Z,6.07
2023-04-13T22:51:22.674Z,6.05
2023-04-13T22:53:49.485Z,7.43
2023-04-13T22:56:16.686Z,9.43
2023-04-13T22:58:43.614Z,9.38
2023-04-13T23:01:10.356Z,9.35
2023-04-13T23:03:37.319Z,8.88
2023-04-13T23:06:07.419Z,8.10
2023-04-13T23:08:34.670Z,7.82
2023-04-13T23:11:11.004Z,6.80
2023-04-13T23:13:37.995Z,6.65
2023-04-13T23:16:08.664Z,6.88
2023-04-13T23:18:35.974Z,6.35
2023-04-13T23:21:14.698Z,6.45
2023-04-13T23:23:43.903Z,6.38
2023-04-13T23:26:13.321Z,6.40
2023-04-13T23:28:43.864Z,6.05
2023-04-13T23:31:17.409Z,6.03
2023-04-13T23:33:54.905Z,6.00
2023-04-13T23:36:27.807Z,5.37
2023-04-13T23:38:57.411Z,4.55
2023-04-13T23:41:27.534Z,5.70
2023-04-13T23:43:55.628Z,5.00
2023-04-13T23:46:25.557Z,5.15
2023-04-13T23:48:54.666Z,4.50
2023-04-13T23:51:31.313Z,5.07
2023-04-13T23:53:58.708Z,5.18
2023-04-13T23:56:34.325Z,4.73
2023-04-13T23:59:01.952Z,4.73
